Susan Elizabeth — WDG4681 — position and weather

sailwx.info

Track history (hours):
 
Tides and Currents Weather Stations Pressure Air Temp Water Temp Dewpoint Dewpoint Depression Visibility Wind Speed Wind Dir Waves Ship Positions

Susan Elizabeth

Owner: Kirby Inland Marine, LP, Houston, TX. More information available from US FCC via Universal Licensing System and Coast Guard Vessel Documentation Center.

Last reported at 2018-Jan-08 13:22 UTC. Time now 2018-Jan-23 06:06 UTC.
Position N 29°30' W 094°52'.
Warning: this ship's position is 14 days out of date.

Length 23 m; draft 3 m.

Type: Other ship. MMSI: 367022350.

Date/timePositionNaut miles runAvg speedWind from/ knotsBaromVisibWave heightAir tempDewpointWater temp
2018-Jan-08 13:22N 29°30' W 094°52'4 9.9
2018-Jan-08 13:00N 29°33' W 094°55'4 8.4
2018-Jan-08 12:28N 29°37' W 094°57'2 4.0
2018-Jan-08 12:00N 29°37' W 094°60'2 3.2
2018-Jan-08 11:30N 29°37' W 095°01'0 0.0
2018-Jan-08 11:00N 29°37' W 095°01'0 0.0
2018-Jan-08 10:30N 29°37' W 095°01'0 0.0
2018-Jan-08 10:00N 29°37' W 095°01'0 0.0
2018-Jan-08 09:30N 29°37' W 095°01'0 0.0
2018-Jan-08 09:00N 29°37' W 095°01'0 0.0
2018-Jan-08 08:30N 29°37' W 095°01'0 0.0
2018-Jan-08 08:00N 29°37' W 095°01'0 0.0
2018-Jan-08 07:30N 29°37' W 095°01'0 0.1
2018-Jan-08 07:00N 29°37' W 095°01'0 0.0
2018-Jan-08 06:30N 29°37' W 095°01'0 0.0
2018-Jan-08 06:00N 29°37' W 095°01'0 0.0
2018-Jan-08 05:30N 29°37' W 095°01'0 0.0
2018-Jan-08 05:00N 29°37' W 095°01'0 0.0
2018-Jan-08 04:30N 29°37' W 095°01'0 0.0
2018-Jan-08 04:00N 29°37' W 095°01'0 0.0
2018-Jan-08 03:30N 29°37' W 095°01'0 0.0
2018-Jan-08 03:00N 29°37' W 095°01'0 0.0
2018-Jan-08 02:30N 29°37' W 095°01'0 0.0
2018-Jan-08 02:00N 29°37' W 095°01'0 0.0
2018-Jan-08 01:30N 29°37' W 095°01'0 0.0
2018-Jan-08 01:00N 29°37' W 095°01'0 0.0
2018-Jan-08 00:30N 29°37' W 095°01'0 0.0
2018-Jan-08 00:00N 29°37' W 095°01'0 0.5
2018-Jan-07 23:30N 29°37' W 095°01'0 0.4
2018-Jan-07 23:00N 29°36' W 095°01'0 0.0
2018-Jan-07 22:30N 29°36' W 095°01'0 0.0
2018-Jan-07 22:00N 29°36' W 095°01'0 0.0
2018-Jan-07 21:30N 29°36' W 095°01'0 0.0
2018-Jan-07 21:00N 29°36' W 095°01'0 0.0
2018-Jan-07 20:30N 29°36' W 095°01'0 0.0
2018-Jan-07 20:00N 29°36' W 095°01'0 0.0
2018-Jan-07 19:30N 29°36' W 095°01'0 0.0
2018-Jan-07 19:00N 29°36' W 095°01'0 0.0
2018-Jan-07 18:27N 29°36' W 095°01'0 0.0
2018-Jan-07 18:00N 29°36' W 095°01'0 0.0
2018-Jan-07 17:30N 29°36' W 095°01'0 0.0
2018-Jan-07 17:00N 29°36' W 095°01'0 0.0
2018-Jan-07 16:30N 29°36' W 095°01'0 0.0
2018-Jan-07 16:00N 29°36' W 095°01'0 0.0
2018-Jan-07 15:30N 29°36' W 095°01'0 0.0
2018-Jan-07 14:58N 29°36' W 095°01'0 0.0
2018-Jan-07 14:30N 29°36' W 095°01'0 0.0
2018-Jan-07 14:00N 29°36' W 095°01'0 0.0
2018-Jan-07 13:30N 29°36' W 095°01'0 0.0
2018-Jan-07 13:00N 29°36' W 095°01'0 0.0
2018-Jan-07 12:30N 29°36' W 095°01'0 0.0
2018-Jan-07 12:00N 29°36' W 095°01'0 0.0
2018-Jan-07 11:30N 29°36' W 095°01'0 0.0
2018-Jan-07 11:00N 29°36' W 095°01'0 0.0
2018-Jan-07 10:30N 29°36' W 095°01'0 0.0
2018-Jan-07 10:00N 29°36' W 095°01'0 0.0
2018-Jan-07 09:30N 29°36' W 095°01'0 0.0
2018-Jan-07 09:00N 29°36' W 095°01'0 0.0
2018-Jan-07 08:30N 29°36' W 095°01'0 0.0
2018-Jan-07 08:00N 29°36' W 095°01'0 0.0
2018-Jan-07 07:30N 29°36' W 095°01'0 0.0
2018-Jan-07 07:00N 29°36' W 095°01'0 0.0
2018-Jan-07 06:30N 29°36' W 095°01'0 0.0
2018-Jan-07 06:00N 29°36' W 095°01'0 0.0
2018-Jan-07 05:30N 29°36' W 095°01'0 0.0
2018-Jan-07 04:59N 29°36' W 095°01'0 0.0
2018-Jan-07 04:30N 29°36' W 095°01'0 0.0
2018-Jan-07 04:00N 29°36' W 095°01'0 0.0
2018-Jan-07 03:30N 29°36' W 095°01'0 0.0
2018-Jan-07 03:00N 29°36' W 095°01'0 0.0
2018-Jan-07 02:30N 29°36' W 095°01'0 0.1
2018-Jan-07 02:00N 29°37' W 095°01'1 1.3
2018-Jan-07 01:30N 29°37' W 095°00'  
2018-Jan-01 21:28N 29°30' W 094°52'3 7.5
2018-Jan-01 21:00N 29°33' W 094°54'4 8.1
2018-Jan-01 20:30N 29°36' W 094°57'4 7.3
2018-Jan-01 20:00N 29°37' W 095°01'0 0.6
2018-Jan-01 19:30N 29°36' W 095°01'0 0.0
2018-Jan-01 19:00N 29°36' W 095°01'0 0.0
2018-Jan-01 18:24N 29°36' W 095°01'0 0.0
2018-Jan-01 18:00N 29°36' W 095°01'0 0.0
2018-Jan-01 17:30N 29°36' W 095°01'0 0.0
2018-Jan-01 15:00N 29°36' W 095°01'0 0.0
2018-Jan-01 14:30N 29°36' W 095°01'0 0.0
2018-Jan-01 14:00N 29°36' W 095°01'0 0.0
2018-Jan-01 13:30N 29°36' W 095°01'0 0.0
2018-Jan-01 13:00N 29°36' W 095°01'0 0.0
2018-Jan-01 12:00N 29°36' W 095°01'0 0.0
2018-Jan-01 11:30N 29°36' W 095°01'0 0.0
2018-Jan-01 11:00N 29°36' W 095°01'0 0.0
2018-Jan-01 10:30N 29°36' W 095°01'0 0.0
2018-Jan-01 10:01N 29°36' W 095°01'0 0.0
2018-Jan-01 09:30N 29°36' W 095°01'0 0.0
2018-Jan-01 08:30N 29°36' W 095°01'0 0.0
2018-Jan-01 08:00N 29°36' W 095°01'0 0.0
2018-Jan-01 07:30N 29°36' W 095°01'0 0.0
2018-Jan-01 07:00N 29°36' W 095°01'0 0.0
2018-Jan-01 06:00N 29°36' W 095°01'0 0.0
2018-Jan-01 05:30N 29°36' W 095°01'0 0.0
2018-Jan-01 05:00N 29°36' W 095°01'0 0.0
2018-Jan-01 04:00N 29°36' W 095°01'0 0.0
2018-Jan-01 03:30N 29°36' W 095°01'0 0.0
2018-Jan-01 03:00N 29°36' W 095°01'0 0.0
2018-Jan-01 02:30N 29°36' W 095°01'0 0.0
2018-Jan-01 02:00N 29°36' W 095°01'0 0.0
2018-Jan-01 01:30N 29°36' W 095°01'0 0.0
2018-Jan-01 00:30N 29°36' W 095°01'0 0.0
2017-Dec-31 21:00N 29°36' W 095°01'0 0.0
2017-Dec-31 20:30N 29°36' W 095°01'0 0.0
2017-Dec-31 20:00N 29°36' W 095°01'0 0.0
2017-Dec-31 19:30N 29°36' W 095°01'0 0.0
2017-Dec-31 19:00N 29°36' W 095°01'0 0.0
2017-Dec-31 18:30N 29°36' W 095°01'0 0.0
2017-Dec-31 18:00N 29°36' W 095°01'0 0.0
2017-Dec-31 17:30N 29°36' W 095°01'0 0.0
2017-Dec-31 17:00N 29°36' W 095°01'0 0.0
2017-Dec-31 16:30N 29°36' W 095°01'0 0.0
2017-Dec-31 16:00N 29°36' W 095°01'0 0.0
2017-Dec-31 15:30N 29°36' W 095°01'0 0.0
2017-Dec-31 15:00N 29°36' W 095°01'0 0.0
2017-Dec-31 14:30N 29°36' W 095°01'0 0.0
2017-Dec-31 14:00N 29°36' W 095°01'0 0.0
2017-Dec-31 13:30N 29°36' W 095°01'0 0.0
2017-Dec-31 13:00N 29°36' W 095°01'0 0.0
2017-Dec-31 12:30N 29°36' W 095°01'0 0.0
2017-Dec-31 12:00N 29°36' W 095°01'0 0.0
2017-Dec-31 11:30N 29°36' W 095°01'0 0.0
2017-Dec-31 11:00N 29°36' W 095°01'0 0.0
2017-Dec-31 10:30N 29°36' W 095°01'0 0.0
2017-Dec-31 10:00N 29°36' W 095°01'0 0.0
2017-Dec-31 09:30N 29°36' W 095°01'0 0.0
2017-Dec-31 09:00N 29°36' W 095°01'0 0.0
2017-Dec-31 08:30N 29°36' W 095°01'0 0.0
2017-Dec-31 08:00N 29°36' W 095°01'0 0.0
2017-Dec-31 07:30N 29°36' W 095°01'0 0.0
2017-Dec-31 07:00N 29°36' W 095°01'0 0.0
2017-Dec-31 06:30N 29°36' W 095°01'0 0.0
2017-Dec-31 06:00N 29°36' W 095°01'0 0.0
2017-Dec-31 05:30N 29°36' W 095°01'0 0.0
2017-Dec-31 05:00N 29°36' W 095°01'0 0.0
2017-Dec-31 04:29N 29°36' W 095°01'0 0.0
2017-Dec-31 04:00N 29°36' W 095°01'0 0.0
2017-Dec-31 03:30N 29°36' W 095°01'0 0.0
2017-Dec-31 03:00N 29°36' W 095°01'0 0.0
2017-Dec-31 02:30N 29°36' W 095°01'0 0.0
2017-Dec-31 02:00N 29°36' W 095°01'0 0.0
2017-Dec-31 01:30N 29°36' W 095°01'1 1.1
2017-Dec-31 01:00N 29°37' W 095°01'3 5.3
2017-Dec-31 00:30N 29°37' W 094°58'3 6.4
2017-Dec-31 00:00N 29°34' W 094°55'69 2.0
2017-Dec-29 14:03N 30°03' W 093°43'1 6.2
2017-Dec-29 13:54N 30°04' W 093°42'3 6.7
2017-Dec-29 13:30N 30°04' W 093°39'  
Track history (hours):
 
Tides and Currents Weather Stations Pressure Air Temp Water Temp Dewpoint Dewpoint Depression Visibility Wind Speed Wind Dir Waves Ship Positions

Susan Elizabeth

Owner: Kirby Inland Marine, LP, Houston, TX. More information available from US FCC via Universal Licensing System and Coast Guard Vessel Documentation Center.

Last reported at 2018-Jan-08 13:22 UTC. Time now 2018-Jan-23 06:06 UTC.
Position N 29°30' W 094°52'.
Warning: this ship's position is 14 days out of date.

Length 23 m; draft 3 m.

Type: Other ship. MMSI: 367022350.

Date/timePositionNaut miles runAvg speedWind from/ knotsBaromVisibWave heightAir tempDewpointWater temp
2018-Jan-08 13:22N 29°30' W 094°52'4 9.9
2018-Jan-08 13:00N 29°33' W 094°55'4 8.4
2018-Jan-08 12:28N 29°37' W 094°57'2 4.0
2018-Jan-08 12:00N 29°37' W 094°60'2 3.2
2018-Jan-08 11:30N 29°37' W 095°01'0 0.0
2018-Jan-08 11:00N 29°37' W 095°01'0 0.0
2018-Jan-08 10:30N 29°37' W 095°01'0 0.0
2018-Jan-08 10:00N 29°37' W 095°01'0 0.0
2018-Jan-08 09:30N 29°37' W 095°01'0 0.0
2018-Jan-08 09:00N 29°37' W 095°01'0 0.0
2018-Jan-08 08:30N 29°37' W 095°01'0 0.0
2018-Jan-08 08:00N 29°37' W 095°01'0 0.0
2018-Jan-08 07:30N 29°37' W 095°01'0 0.1
2018-Jan-08 07:00N 29°37' W 095°01'0 0.0
2018-Jan-08 06:30N 29°37' W 095°01'0 0.0
2018-Jan-08 06:00N 29°37' W 095°01'0 0.0
2018-Jan-08 05:30N 29°37' W 095°01'0 0.0
2018-Jan-08 05:00N 29°37' W 095°01'0 0.0
2018-Jan-08 04:30N 29°37' W 095°01'0 0.0
2018-Jan-08 04:00N 29°37' W 095°01'0 0.0
2018-Jan-08 03:30N 29°37' W 095°01'0 0.0
2018-Jan-08 03:00N 29°37' W 095°01'0 0.0
2018-Jan-08 02:30N 29°37' W 095°01'0 0.0
2018-Jan-08 02:00N 29°37' W 095°01'0 0.0
2018-Jan-08 01:30N 29°37' W 095°01'0 0.0
2018-Jan-08 01:00N 29°37' W 095°01'0 0.0
2018-Jan-08 00:30N 29°37' W 095°01'0 0.0
2018-Jan-08 00:00N 29°37' W 095°01'0 0.5
2018-Jan-07 23:30N 29°37' W 095°01'0 0.4
2018-Jan-07 23:00N 29°36' W 095°01'0 0.0
2018-Jan-07 22:30N 29°36' W 095°01'0 0.0
2018-Jan-07 22:00N 29°36' W 095°01'0 0.0
2018-Jan-07 21:30N 29°36' W 095°01'0 0.0
2018-Jan-07 21:00N 29°36' W 095°01'0 0.0
2018-Jan-07 20:30N 29°36' W 095°01'0 0.0
2018-Jan-07 20:00N 29°36' W 095°01'0 0.0
2018-Jan-07 19:30N 29°36' W 095°01'0 0.0
2018-Jan-07 19:00N 29°36' W 095°01'0 0.0
2018-Jan-07 18:27N 29°36' W 095°01'0 0.0
2018-Jan-07 18:00N 29°36' W 095°01'0 0.0
2018-Jan-07 17:30N 29°36' W 095°01'0 0.0
2018-Jan-07 17:00N 29°36' W 095°01'0 0.0
2018-Jan-07 16:30N 29°36' W 095°01'0 0.0
2018-Jan-07 16:00N 29°36' W 095°01'0 0.0
2018-Jan-07 15:30N 29°36' W 095°01'0 0.0
2018-Jan-07 14:58N 29°36' W 095°01'0 0.0
2018-Jan-07 14:30N 29°36' W 095°01'0 0.0
2018-Jan-07 14:00N 29°36' W 095°01'0 0.0
2018-Jan-07 13:30N 29°36' W 095°01'0 0.0
2018-Jan-07 13:00N 29°36' W 095°01'0 0.0
2018-Jan-07 12:30N 29°36' W 095°01'0 0.0
2018-Jan-07 12:00N 29°36' W 095°01'0 0.0
2018-Jan-07 11:30N 29°36' W 095°01'0 0.0
2018-Jan-07 11:00N 29°36' W 095°01'0 0.0
2018-Jan-07 10:30N 29°36' W 095°01'0 0.0
2018-Jan-07 10:00N 29°36' W 095°01'0 0.0
2018-Jan-07 09:30N 29°36' W 095°01'0 0.0
2018-Jan-07 09:00N 29°36' W 095°01'0 0.0
2018-Jan-07 08:30N 29°36' W 095°01'0 0.0
2018-Jan-07 08:00N 29°36' W 095°01'0 0.0
2018-Jan-07 07:30N 29°36' W 095°01'0 0.0
2018-Jan-07 07:00N 29°36' W 095°01'0 0.0
2018-Jan-07 06:30N 29°36' W 095°01'0 0.0
2018-Jan-07 06:00N 29°36' W 095°01'0 0.0
2018-Jan-07 05:30N 29°36' W 095°01'0 0.0
2018-Jan-07 04:59N 29°36' W 095°01'0 0.0
2018-Jan-07 04:30N 29°36' W 095°01'0 0.0
2018-Jan-07 04:00N 29°36' W 095°01'0 0.0
2018-Jan-07 03:30N 29°36' W 095°01'0 0.0
2018-Jan-07 03:00N 29°36' W 095°01'0 0.0
2018-Jan-07 02:30N 29°36' W 095°01'0 0.1
2018-Jan-07 02:00N 29°37' W 095°01'1 1.3
2018-Jan-07 01:30N 29°37' W 095°00'  
2018-Jan-01 21:28N 29°30' W 094°52'3 7.5
2018-Jan-01 21:00N 29°33' W 094°54'4 8.1
2018-Jan-01 20:30N 29°36' W 094°57'4 7.3
2018-Jan-01 20:00N 29°37' W 095°01'0 0.6
2018-Jan-01 19:30N 29°36' W 095°01'0 0.0
2018-Jan-01 19:00N 29°36' W 095°01'0 0.0
2018-Jan-01 18:24N 29°36' W 095°01'0 0.0
2018-Jan-01 18:00N 29°36' W 095°01'0 0.0
2018-Jan-01 17:30N 29°36' W 095°01'0 0.0
2018-Jan-01 15:00N 29°36' W 095°01'0 0.0
2018-Jan-01 14:30N 29°36' W 095°01'0 0.0
2018-Jan-01 14:00N 29°36' W 095°01'0 0.0
2018-Jan-01 13:30N 29°36' W 095°01'0 0.0
2018-Jan-01 13:00N 29°36' W 095°01'0 0.0
2018-Jan-01 12:00N 29°36' W 095°01'0 0.0
2018-Jan-01 11:30N 29°36' W 095°01'0 0.0
2018-Jan-01 11:00N 29°36' W 095°01'0 0.0
2018-Jan-01 10:30N 29°36' W 095°01'0 0.0
2018-Jan-01 10:01N 29°36' W 095°01'0 0.0
2018-Jan-01 09:30N 29°36' W 095°01'0 0.0
2018-Jan-01 08:30N 29°36' W 095°01'0 0.0
2018-Jan-01 08:00N 29°36' W 095°01'0 0.0
2018-Jan-01 07:30N 29°36' W 095°01'0 0.0
2018-Jan-01 07:00N 29°36' W 095°01'0 0.0
2018-Jan-01 06:00N 29°36' W 095°01'0 0.0
2018-Jan-01 05:30N 29°36' W 095°01'0 0.0
2018-Jan-01 05:00N 29°36' W 095°01'0 0.0
2018-Jan-01 04:00N 29°36' W 095°01'0 0.0
2018-Jan-01 03:30N 29°36' W 095°01'0 0.0
2018-Jan-01 03:00N 29°36' W 095°01'0 0.0
2018-Jan-01 02:30N 29°36' W 095°01'0 0.0
2018-Jan-01 02:00N 29°36' W 095°01'0 0.0
2018-Jan-01 01:30N 29°36' W 095°01'0 0.0
2018-Jan-01 00:30N 29°36' W 095°01'0 0.0
2017-Dec-31 21:00N 29°36' W 095°01'0 0.0
2017-Dec-31 20:30N 29°36' W 095°01'0 0.0
2017-Dec-31 20:00N 29°36' W 095°01'0 0.0
2017-Dec-31 19:30N 29°36' W 095°01'0 0.0
2017-Dec-31 19:00N 29°36' W 095°01'0 0.0
2017-Dec-31 18:30N 29°36' W 095°01'0 0.0
2017-Dec-31 18:00N 29°36' W 095°01'0 0.0
2017-Dec-31 17:30N 29°36' W 095°01'0 0.0
2017-Dec-31 17:00N 29°36' W 095°01'0 0.0
2017-Dec-31 16:30N 29°36' W 095°01'0 0.0
2017-Dec-31 16:00N 29°36' W 095°01'0 0.0
2017-Dec-31 15:30N 29°36' W 095°01'0 0.0
2017-Dec-31 15:00N 29°36' W 095°01'0 0.0
2017-Dec-31 14:30N 29°36' W 095°01'0 0.0
2017-Dec-31 14:00N 29°36' W 095°01'0 0.0
2017-Dec-31 13:30N 29°36' W 095°01'0 0.0
2017-Dec-31 13:00N 29°36' W 095°01'0 0.0
2017-Dec-31 12:30N 29°36' W 095°01'0 0.0
2017-Dec-31 12:00N 29°36' W 095°01'0 0.0
2017-Dec-31 11:30N 29°36' W 095°01'0 0.0
2017-Dec-31 11:00N 29°36' W 095°01'0 0.0
2017-Dec-31 10:30N 29°36' W 095°01'0 0.0
2017-Dec-31 10:00N 29°36' W 095°01'0 0.0
2017-Dec-31 09:30N 29°36' W 095°01'0 0.0
2017-Dec-31 09:00N 29°36' W 095°01'0 0.0
2017-Dec-31 08:30N 29°36' W 095°01'0 0.0
2017-Dec-31 08:00N 29°36' W 095°01'0 0.0
2017-Dec-31 07:30N 29°36' W 095°01'0 0.0
2017-Dec-31 07:00N 29°36' W 095°01'0 0.0
2017-Dec-31 06:30N 29°36' W 095°01'0 0.0
2017-Dec-31 06:00N 29°36' W 095°01'0 0.0
2017-Dec-31 05:30N 29°36' W 095°01'0 0.0
2017-Dec-31 05:00N 29°36' W 095°01'0 0.0
2017-Dec-31 04:29N 29°36' W 095°01'0 0.0
2017-Dec-31 04:00N 29°36' W 095°01'0 0.0
2017-Dec-31 03:30N 29°36' W 095°01'0 0.0
2017-Dec-31 03:00N 29°36' W 095°01'0 0.0
2017-Dec-31 02:30N 29°36' W 095°01'0 0.0
2017-Dec-31 02:00N 29°36' W 095°01'0 0.0
2017-Dec-31 01:30N 29°36' W 095°01'1 1.1
2017-Dec-31 01:00N 29°37' W 095°01'3 5.3
2017-Dec-31 00:30N 29°37' W 094°58'3 6.4
2017-Dec-31 00:00N 29°34' W 094°55'69 2.0
2017-Dec-29 14:03N 30°03' W 093°43'1 6.2
2017-Dec-29 13:54N 30°04' W 093°42'3 6.7
2017-Dec-29 13:30N 30°04' W 093°39'  

Dump ship's entire track history